AWP weather

Austral Downs Airport
Northern Territory, Australia

Public forecast

Using degrees Celsius for public forecast. Weather courtesy of forecast.io.

METAR (pilot weather report)

Closest report is Mount Isa Airport, 98.2 nm (181.9 km) E. Retrieved 2019/04/19 16:30 UTC (19 minutes ago):

YBMA 191630Z AUTO 10005KT 9999 // BKN090 24/11 Q1016 RF00.0/000.0

TAF (pilot weather forecast)

Closest forecast is Mount Isa Airport, 98.2 nm (181.9 km) E. Retrieved 2019/04/19 12:03 UTC (5 hours ago):

TAF TAF YBMA 191012Z 1912/1924 12007KT CAVOK